sensor_id;sensor_type;location;lat;lon;timestamp;P1;durP1;ratioP1;P2;durP2;ratioP2
4700;SDS011;8724;51.272;6.554;2023-02-28T00:01:28;6.43;;;3.97;;
4700;SDS011;8724;51.272;6.554;2023-02-28T00:03:57;5.23;;;3.83;;
4700;SDS011;8724;51.272;6.554;2023-02-28T00:06:26;7.07;;;4.37;;
4700;SDS011;8724;51.272;6.554;2023-02-28T00:08:55;5.47;;;4.07;;
4700;SDS011;8724;51.272;6.554;2023-02-28T00:11:23;6.03;;;3.97;;
4700;SDS011;8724;51.272;6.554;2023-02-28T00:13:51;5.00;;;4.07;;
4700;SDS011;8724;51.272;6.554;2023-02-28T00:16:21;5.93;;;3.60;;
4700;SDS011;8724;51.272;6.554;2023-02-28T00:18:50;4.50;;;3.80;;
4700;SDS011;8724;51.272;6.554;2023-02-28T00:21:19;4.33;;;3.83;;
4700;SDS011;8724;51.272;6.554;2023-02-28T00:23:48;8.23;;;4.10;;
4700;SDS011;8724;51.272;6.554;2023-02-28T00:26:16;4.63;;;3.57;;
4700;SDS011;8724;51.272;6.554;2023-02-28T00:28:48;5.50;;;3.50;;
4700;SDS011;8724;51.272;6.554;2023-02-28T00:31:16;4.60;;;3.90;;
4700;SDS011;8724;51.272;6.554;2023-02-28T00:33:48;8.67;;;4.13;;
4700;SDS011;8724;51.272;6.554;2023-02-28T00:36:19;3.93;;;3.57;;
4700;SDS011;8724;51.272;6.554;2023-02-28T00:38:48;3.97;;;3.53;;
4700;SDS011;8724;51.272;6.554;2023-02-28T00:41:16;4.63;;;3.67;;
4700;SDS011;8724;51.272;6.554;2023-02-28T00:43:46;5.17;;;3.60;;
4700;SDS011;8724;51.272;6.554;2023-02-28T00:46:14;6.17;;;4.93;;
4700;SDS011;8724;51.272;6.554;2023-02-28T00:48:43;6.10;;;3.50;;
4700;SDS011;8724;51.272;6.554;2023-02-28T00:51:13;5.47;;;4.23;;
4700;SDS011;8724;51.272;6.554;2023-02-28T00:53:41;4.47;;;3.40;;
4700;SDS011;8724;51.272;6.554;2023-02-28T00:56:09;6.20;;;4.40;;
4700;SDS011;8724;51.272;6.554;2023-02-28T00:58:38;6.97;;;4.40;;
4700;SDS011;8724;51.272;6.554;2023-02-28T01:01:06;6.20;;;4.50;;
4700;SDS011;8724;51.272;6.554;2023-02-28T01:03:37;4.37;;;3.97;;
4700;SDS011;8724;51.272;6.554;2023-02-28T01:06:05;4.63;;;4.23;;
4700;SDS011;8724;51.272;6.554;2023-02-28T01:08:35;6.67;;;3.90;;
4700;SDS011;8724;51.272;6.554;2023-02-28T01:11:08;4.27;;;3.83;;
4700;SDS011;8724;51.272;6.554;2023-02-28T01:13:39;4.30;;;3.90;;
4700;SDS011;8724;51.272;6.554;2023-02-28T01:16:08;4.40;;;3.80;;
4700;SDS011;8724;51.272;6.554;2023-02-28T01:18:37;4.50;;;4.10;;
4700;SDS011;8724;51.272;6.554;2023-02-28T01:21:07;4.20;;;3.50;;
4700;SDS011;8724;51.272;6.554;2023-02-28T01:23:39;5.03;;;3.60;;
4700;SDS011;8724;51.272;6.554;2023-02-28T01:26:11;5.73;;;3.83;;
4700;SDS011;8724;51.272;6.554;2023-02-28T01:28:40;8.63;;;4.00;;
4700;SDS011;8724;51.272;6.554;2023-02-28T01:31:10;4.13;;;3.57;;
4700;SDS011;8724;51.272;6.554;2023-02-28T01:33:39;6.40;;;4.60;;
4700;SDS011;8724;51.272;6.554;2023-02-28T01:36:09;5.20;;;3.93;;
4700;SDS011;8724;51.272;6.554;2023-02-28T01:38:39;4.43;;;4.00;;
4700;SDS011;8724;51.272;6.554;2023-02-28T01:41:08;4.57;;;3.73;;
4700;SDS011;8724;51.272;6.554;2023-02-28T01:43:55;7.00;;;4.80;;
4700;SDS011;8724;51.272;6.554;2023-02-28T01:46:31;4.87;;;4.23;;
4700;SDS011;8724;51.272;6.554;2023-02-28T01:49:02;5.67;;;3.90;;
4700;SDS011;8724;51.272;6.554;2023-02-28T01:51:37;6.73;;;3.30;;
4700;SDS011;8724;51.272;6.554;2023-02-28T01:54:15;3.93;;;3.53;;
4700;SDS011;8724;51.272;6.554;2023-02-28T01:56:46;4.67;;;3.50;;
4700;SDS011;8724;51.272;6.554;2023-02-28T01:59:20;4.13;;;3.20;;
4700;SDS011;8724;51.272;6.554;2023-02-28T02:01:54;3.80;;;3.50;;
4700;SDS011;8724;51.272;6.554;2023-02-28T02:04:23;3.87;;;3.10;;
4700;SDS011;8724;51.272;6.554;2023-02-28T02:06:53;3.73;;;3.00;;
4700;SDS011;8724;51.272;6.554;2023-02-28T02:09:23;5.90;;;3.30;;
4700;SDS011;8724;51.272;6.554;2023-02-28T02:11:52;4.73;;;3.03;;
4700;SDS011;8724;51.272;6.554;2023-02-28T02:17:22;3.40;;;3.10;;
4700;SDS011;8724;51.272;6.554;2023-02-28T02:23:07;7.23;;;4.03;;
4700;SDS011;8724;51.272;6.554;2023-02-28T02:26:04;4.37;;;3.20;;
4700;SDS011;8724;51.272;6.554;2023-02-28T02:28:53;6.77;;;3.43;;
4700;SDS011;8724;51.272;6.554;2023-02-28T02:31:48;6.53;;;3.63;;
4700;SDS011;8724;51.272;6.554;2023-02-28T02:37:15;6.53;;;3.63;;
4700;SDS011;8724;51.272;6.554;2023-02-28T02:40:03;6.70;;;3.50;;
4700;SDS011;8724;51.272;6.554;2023-02-28T02:42:39;4.53;;;3.30;;
4700;SDS011;8724;51.272;6.554;2023-02-28T02:45:14;3.30;;;3.03;;
4700;SDS011;8724;51.272;6.554;2023-02-28T02:47:45;3.83;;;3.30;;
4700;SDS011;8724;51.272;6.554;2023-02-28T02:50:17;3.83;;;3.30;;
4700;SDS011;8724;51.272;6.554;2023-02-28T02:52:51;6.27;;;3.80;;
4700;SDS011;8724;51.272;6.554;2023-02-28T02:55:24;3.10;;;2.67;;
4700;SDS011;8724;51.272;6.554;2023-02-28T02:57:54;4.10;;;3.10;;
4700;SDS011;8724;51.272;6.554;2023-02-28T03:00:26;6.10;;;3.20;;
4700;SDS011;8724;51.272;6.554;2023-02-28T03:03:01;3.40;;;3.07;;
4700;SDS011;8724;51.272;6.554;2023-02-28T03:05:34;3.53;;;3.20;;
4700;SDS011;8724;51.272;6.554;2023-02-28T03:08:09;5.17;;;3.93;;
4700;SDS011;8724;51.272;6.554;2023-02-28T03:10:38;3.80;;;3.40;;
4700;SDS011;8724;51.272;6.554;2023-02-28T03:13:15;3.73;;;3.30;;
4700;SDS011;8724;51.272;6.554;2023-02-28T03:19:32;4.77;;;3.17;;
4700;SDS011;8724;51.272;6.554;2023-02-28T03:22:12;3.20;;;2.90;;
4700;SDS011;8724;51.272;6.554;2023-02-28T03:24:48;3.00;;;2.70;;
4700;SDS011;8724;51.272;6.554;2023-02-28T03:27:22;5.70;;;3.90;;
4700;SDS011;8724;51.272;6.554;2023-02-28T03:29:56;4.80;;;3.67;;
4700;SDS011;8724;51.272;6.554;2023-02-28T03:32:29;3.23;;;2.93;;
4700;SDS011;8724;51.272;6.554;2023-02-28T03:35:03;4.53;;;3.93;;
4700;SDS011;8724;51.272;6.554;2023-02-28T03:37:38;5.20;;;4.00;;
4700;SDS011;8724;51.272;6.554;2023-02-28T03:40:11;3.70;;;3.40;;
4700;SDS011;8724;51.272;6.554;2023-02-28T03:42:44;3.83;;;3.53;;
4700;SDS011;8724;51.272;6.554;2023-02-28T03:45:16;3.60;;;2.97;;
4700;SDS011;8724;51.272;6.554;2023-02-28T03:47:49;6.63;;;4.00;;
4700;SDS011;8724;51.272;6.554;2023-02-28T03:50:22;6.93;;;4.17;;
4700;SDS011;8724;51.272;6.554;2023-02-28T03:52:55;4.93;;;3.30;;
4700;SDS011;8724;51.272;6.554;2023-02-28T03:55:32;3.90;;;3.50;;
4700;SDS011;8724;51.272;6.554;2023-02-28T03:58:08;5.40;;;3.40;;
4700;SDS011;8724;51.272;6.554;2023-02-28T04:00:43;5.97;;;3.87;;
4700;SDS011;8724;51.272;6.554;2023-02-28T04:03:15;5.00;;;3.67;;
4700;SDS011;8724;51.272;6.554;2023-02-28T04:05:46;5.17;;;3.50;;
4700;SDS011;8724;51.272;6.554;2023-02-28T04:08:19;4.60;;;3.47;;
4700;SDS011;8724;51.272;6.554;2023-02-28T04:10:49;4.90;;;4.00;;
4700;SDS011;8724;51.272;6.554;2023-02-28T04:13:21;3.90;;;3.50;;
4700;SDS011;8724;51.272;6.554;2023-02-28T04:15:50;3.53;;;3.00;;
4700;SDS011;8724;51.272;6.554;2023-02-28T04:18:18;5.00;;;3.73;;
4700;SDS011;8724;51.272;6.554;2023-02-28T04:20:47;4.00;;;3.10;;
4700;SDS011;8724;51.272;6.554;2023-02-28T04:23:15;4.10;;;2.70;;
4700;SDS011;8724;51.272;6.554;2023-02-28T04:25:45;3.23;;;2.97;;
4700;SDS011;8724;51.272;6.554;2023-02-28T04:28:14;3.63;;;2.70;;
4700;SDS011;8724;51.272;6.554;2023-02-28T04:30:42;5.17;;;3.53;;
4700;SDS011;8724;51.272;6.554;2023-02-28T04:33:10;4.30;;;3.00;;
4700;SDS011;8724;51.272;6.554;2023-02-28T04:35:39;3.93;;;3.03;;
4700;SDS011;8724;51.272;6.554;2023-02-28T04:38:07;6.17;;;3.10;;
4700;SDS011;8724;51.272;6.554;2023-02-28T04:40:36;3.63;;;2.90;;
4700;SDS011;8724;51.272;6.554;2023-02-28T04:43:06;2.97;;;2.70;;
4700;SDS011;8724;51.272;6.554;2023-02-28T04:45:34;7.40;;;3.17;;
4700;SDS011;8724;51.272;6.554;2023-02-28T04:48:03;3.23;;;2.93;;
4700;SDS011;8724;51.272;6.554;2023-02-28T04:50:32;2.87;;;2.50;;
4700;SDS011;8724;51.272;6.554;2023-02-28T04:53:00;7.00;;;2.50;;
4700;SDS011;8724;51.272;6.554;2023-02-28T04:55:28;3.40;;;2.90;;
4700;SDS011;8724;51.272;6.554;2023-02-28T04:57:57;6.33;;;4.90;;
4700;SDS011;8724;51.272;6.554;2023-02-28T05:00:30;11.77;;;8.23;;
4700;SDS011;8724;51.272;6.554;2023-02-28T05:02:58;9.47;;;6.97;;
4700;SDS011;8724;51.272;6.554;2023-02-28T05:05:26;22.97;;;18.17;;
4700;SDS011;8724;51.272;6.554;2023-02-28T05:07:55;17.23;;;12.80;;
4700;SDS011;8724;51.272;6.554;2023-02-28T05:10:23;7.60;;;5.83;;
4700;SDS011;8724;51.272;6.554;2023-02-28T05:12:52;4.40;;;4.00;;
4700;SDS011;8724;51.272;6.554;2023-02-28T05:15:20;5.13;;;3.47;;
4700;SDS011;8724;51.272;6.554;2023-02-28T05:17:50;5.80;;;2.80;;
4700;SDS011;8724;51.272;6.554;2023-02-28T05:20:18;4.83;;;3.47;;
4700;SDS011;8724;51.272;6.554;2023-02-28T05:22:47;2.83;;;2.43;;
4700;SDS011;8724;51.272;6.554;2023-02-28T05:25:18;3.80;;;2.60;;
4700;SDS011;8724;51.272;6.554;2023-02-28T05:27:48;2.60;;;2.33;;
4700;SDS011;8724;51.272;6.554;2023-02-28T05:30:17;2.47;;;2.27;;
4700;SDS011;8724;51.272;6.554;2023-02-28T05:32:49;3.60;;;2.67;;
4700;SDS011;8724;51.272;6.554;2023-02-28T05:35:19;4.03;;;2.27;;
4700;SDS011;8724;51.272;6.554;2023-02-28T05:37:47;2.63;;;2.43;;
4700;SDS011;8724;51.272;6.554;2023-02-28T05:40:15;3.03;;;2.70;;
4700;SDS011;8724;51.272;6.554;2023-02-28T05:42:46;2.97;;;2.73;;
4700;SDS011;8724;51.272;6.554;2023-02-28T05:45:14;2.60;;;2.40;;
4700;SDS011;8724;51.272;6.554;2023-02-28T05:47:43;3.10;;;2.13;;
4700;SDS011;8724;51.272;6.554;2023-02-28T05:50:13;2.83;;;2.50;;
4700;SDS011;8724;51.272;6.554;2023-02-28T05:52:41;9.63;;;2.53;;
4700;SDS011;8724;51.272;6.554;2023-02-28T05:55:10;9.87;;;7.20;;
4700;SDS011;8724;51.272;6.554;2023-02-28T05:57:38;8.03;;;6.70;;
4700;SDS011;8724;51.272;6.554;2023-02-28T06:00:07;6.03;;;4.47;;
4700;SDS011;8724;51.272;6.554;2023-02-28T06:02:39;4.90;;;3.53;;
4700;SDS011;8724;51.272;6.554;2023-02-28T06:05:09;3.83;;;3.43;;
4700;SDS011;8724;51.272;6.554;2023-02-28T06:07:43;2.73;;;2.40;;
4700;SDS011;8724;51.272;6.554;2023-02-28T06:10:12;2.67;;;2.30;;
4700;SDS011;8724;51.272;6.554;2023-02-28T06:12:41;2.33;;;2.17;;
4700;SDS011;8724;51.272;6.554;2023-02-28T06:15:11;2.20;;;2.10;;
4700;SDS011;8724;51.272;6.554;2023-02-28T06:17:41;2.43;;;2.20;;
4700;SDS011;8724;51.272;6.554;2023-02-28T06:20:11;3.73;;;2.47;;
4700;SDS011;8724;51.272;6.554;2023-02-28T06:22:41;3.20;;;2.50;;
4700;SDS011;8724;51.272;6.554;2023-02-28T06:25:09;2.80;;;2.27;;
4700;SDS011;8724;51.272;6.554;2023-02-28T06:27:38;3.53;;;2.37;;
4700;SDS011;8724;51.272;6.554;2023-02-28T06:30:07;3.00;;;2.40;;
4700;SDS011;8724;51.272;6.554;2023-02-28T06:32:36;5.20;;;2.13;;
4700;SDS011;8724;51.272;6.554;2023-02-28T06:35:05;2.50;;;2.30;;
4700;SDS011;8724;51.272;6.554;2023-02-28T06:37:34;3.80;;;2.33;;
4700;SDS011;8724;51.272;6.554;2023-02-28T06:40:07;3.47;;;2.93;;
4700;SDS011;8724;51.272;6.554;2023-02-28T06:42:37;3.90;;;2.37;;
4700;SDS011;8724;51.272;6.554;2023-02-28T06:45:06;3.60;;;2.50;;
4700;SDS011;8724;51.272;6.554;2023-02-28T06:47:36;2.67;;;2.47;;
4700;SDS011;8724;51.272;6.554;2023-02-28T06:50:06;3.40;;;2.73;;
4700;SDS011;8724;51.272;6.554;2023-02-28T06:52:36;5.40;;;2.70;;
4700;SDS011;8724;51.272;6.554;2023-02-28T06:55:05;2.90;;;2.60;;
4700;SDS011;8724;51.272;6.554;2023-02-28T06:57:35;4.50;;;3.43;;
4700;SDS011;8724;51.272;6.554;2023-02-28T07:00:06;3.17;;;2.50;;
4700;SDS011;8724;51.272;6.554;2023-02-28T07:02:36;3.20;;;2.60;;
4700;SDS011;8724;51.272;6.554;2023-02-28T07:05:05;3.80;;;2.30;;
4700;SDS011;8724;51.272;6.554;2023-02-28T07:07:34;3.40;;;2.10;;
4700;SDS011;8724;51.272;6.554;2023-02-28T07:10:04;42.80;;;31.00;;
4700;SDS011;8724;51.272;6.554;2023-02-28T07:12:36;45.30;;;34.90;;
4700;SDS011;8724;51.272;6.554;2023-02-28T07:15:05;19.63;;;13.80;;
4700;SDS011;8724;51.272;6.554;2023-02-28T07:17:34;9.60;;;6.60;;
4700;SDS011;8724;51.272;6.554;2023-02-28T07:20:02;5.13;;;4.47;;
4700;SDS011;8724;51.272;6.554;2023-02-28T07:22:32;11.37;;;3.60;;
4700;SDS011;8724;51.272;6.554;2023-02-28T07:25:00;3.70;;;2.87;;
4700;SDS011;8724;51.272;6.554;2023-02-28T07:27:30;2.80;;;2.40;;
4700;SDS011;8724;51.272;6.554;2023-02-28T07:30:01;3.07;;;2.47;;
4700;SDS011;8724;51.272;6.554;2023-02-28T07:32:30;4.60;;;2.60;;
4700;SDS011;8724;51.272;6.554;2023-02-28T07:34:58;2.53;;;2.23;;
4700;SDS011;8724;51.272;6.554;2023-02-28T07:37:27;3.03;;;2.17;;
4700;SDS011;8724;51.272;6.554;2023-02-28T07:39:58;3.37;;;2.53;;
4700;SDS011;8724;51.272;6.554;2023-02-28T07:42:26;6.00;;;2.60;;
4700;SDS011;8724;51.272;6.554;2023-02-28T07:44:56;2.50;;;2.27;;
4700;SDS011;8724;51.272;6.554;2023-02-28T07:47:25;3.70;;;2.40;;
4700;SDS011;8724;51.272;6.554;2023-02-28T07:49:53;2.07;;;1.90;;
4700;SDS011;8724;51.272;6.554;2023-02-28T07:52:22;3.80;;;2.10;;
4700;SDS011;8724;51.272;6.554;2023-02-28T07:54:50;3.93;;;2.67;;
4700;SDS011;8724;51.272;6.554;2023-02-28T07:57:19;2.40;;;2.20;;
4700;SDS011;8724;51.272;6.554;2023-02-28T07:59:47;3.77;;;2.50;;
4700;SDS011;8724;51.272;6.554;2023-02-28T08:02:17;6.40;;;2.73;;
4700;SDS011;8724;51.272;6.554;2023-02-28T08:04:46;2.53;;;2.30;;
4700;SDS011;8724;51.272;6.554;2023-02-28T08:07:15;2.50;;;2.30;;
4700;SDS011;8724;51.272;6.554;2023-02-28T08:09:45;2.30;;;2.10;;
4700;SDS011;8724;51.272;6.554;2023-02-28T08:12:13;2.00;;;1.77;;
4700;SDS011;8724;51.272;6.554;2023-02-28T08:14:41;2.97;;;1.97;;
4700;SDS011;8724;51.272;6.554;2023-02-28T08:17:10;2.67;;;2.47;;
4700;SDS011;8724;51.272;6.554;2023-02-28T08:19:40;2.27;;;1.97;;
4700;SDS011;8724;51.272;6.554;2023-02-28T08:22:09;2.60;;;2.17;;
4700;SDS011;8724;51.272;6.554;2023-02-28T08:24:37;2.10;;;2.00;;
4700;SDS011;8724;51.272;6.554;2023-02-28T08:27:06;1.73;;;1.63;;
4700;SDS011;8724;51.272;6.554;2023-02-28T08:29:37;32.03;;;26.00;;
4700;SDS011;8724;51.272;6.554;2023-02-28T08:32:06;56.03;;;40.63;;
4700;SDS011;8724;51.272;6.554;2023-02-28T08:34:55;28.37;;;20.50;;
4700;SDS011;8724;51.272;6.554;2023-02-28T08:37:24;13.90;;;9.63;;
4700;SDS011;8724;51.272;6.554;2023-02-28T08:39:52;5.00;;;4.20;;
4700;SDS011;8724;51.272;6.554;2023-02-28T08:42:22;3.00;;;2.60;;
4700;SDS011;8724;51.272;6.554;2023-02-28T08:44:50;3.03;;;2.73;;
4700;SDS011;8724;51.272;6.554;2023-02-28T08:47:18;2.20;;;2.00;;
4700;SDS011;8724;51.272;6.554;2023-02-28T08:49:47;2.27;;;1.90;;
4700;SDS011;8724;51.272;6.554;2023-02-28T08:52:17;2.10;;;1.90;;
4700;SDS011;8724;51.272;6.554;2023-02-28T08:54:45;1.93;;;1.80;;
4700;SDS011;8724;51.272;6.554;2023-02-28T08:57:13;2.27;;;1.73;;
4700;SDS011;8724;51.272;6.554;2023-02-28T08:59:42;2.60;;;2.10;;
4700;SDS011;8724;51.272;6.554;2023-02-28T09:02:11;5.23;;;1.90;;
4700;SDS011;8724;51.272;6.554;2023-02-28T09:04:40;1.87;;;1.67;;
4700;SDS011;8724;51.272;6.554;2023-02-28T09:07:11;2.37;;;2.00;;
4700;SDS011;8724;51.272;6.554;2023-02-28T09:09:41;1.83;;;1.73;;
4700;SDS011;8724;51.272;6.554;2023-02-28T09:12:20;2.63;;;2.07;;
4700;SDS011;8724;51.272;6.554;2023-02-28T09:14:49;1.77;;;1.67;;
4700;SDS011;8724;51.272;6.554;2023-02-28T09:17:18;2.90;;;1.77;;
4700;SDS011;8724;51.272;6.554;2023-02-28T09:19:47;1.73;;;1.63;;
4700;SDS011;8724;51.272;6.554;2023-02-28T09:22:15;2.17;;;1.60;;
4700;SDS011;8724;51.272;6.554;2023-02-28T09:24:45;22.40;;;17.93;;
4700;SDS011;8724;51.272;6.554;2023-02-28T09:27:14;20.17;;;12.80;;
4700;SDS011;8724;51.272;6.554;2023-02-28T09:29:42;8.00;;;4.60;;
4700;SDS011;8724;51.272;6.554;2023-02-28T09:32:10;2.77;;;2.50;;
4700;SDS011;8724;51.272;6.554;2023-02-28T09:34:39;2.90;;;2.23;;
4700;SDS011;8724;51.272;6.554;2023-02-28T09:37:07;2.27;;;1.67;;
4700;SDS011;8724;51.272;6.554;2023-02-28T09:39:36;1.77;;;1.67;;
4700;SDS011;8724;51.272;6.554;2023-02-28T09:42:06;1.57;;;1.47;;
4700;SDS011;8724;51.272;6.554;2023-02-28T09:44:47;2.80;;;2.07;;
4700;SDS011;8724;51.272;6.554;2023-02-28T09:47:18;2.90;;;2.13;;
4700;SDS011;8724;51.272;6.554;2023-02-28T09:49:54;2.67;;;1.80;;
4700;SDS011;8724;51.272;6.554;2023-02-28T09:52:26;1.80;;;1.70;;
4700;SDS011;8724;51.272;6.554;2023-02-28T09:54:59;1.87;;;1.77;;
4700;SDS011;8724;51.272;6.554;2023-02-28T09:57:37;2.70;;;1.60;;
4700;SDS011;8724;51.272;6.554;2023-02-28T10:00:10;1.80;;;1.70;;
4700;SDS011;8724;51.272;6.554;2023-02-28T10:02:50;2.20;;;1.77;;
4700;SDS011;8724;51.272;6.554;2023-02-28T10:05:33;2.03;;;1.67;;
4700;SDS011;8724;51.272;6.554;2023-02-28T10:08:11;3.20;;;1.33;;
4700;SDS011;8724;51.272;6.554;2023-02-28T10:10:42;2.77;;;1.67;;
4700;SDS011;8724;51.272;6.554;2023-02-28T10:13:15;3.20;;;1.80;;
4700;SDS011;8724;51.272;6.554;2023-02-28T10:15:51;3.80;;;1.67;;
4700;SDS011;8724;51.272;6.554;2023-02-28T10:18:23;2.17;;;1.57;;
4700;SDS011;8724;51.272;6.554;2023-02-28T10:20:56;11.83;;;2.00;;
4700;SDS011;8724;51.272;6.554;2023-02-28T10:23:28;2.60;;;1.70;;
4700;SDS011;8724;51.272;6.554;2023-02-28T10:26:03;1.70;;;1.60;;
4700;SDS011;8724;51.272;6.554;2023-02-28T10:28:40;2.07;;;1.70;;
4700;SDS011;8724;51.272;6.554;2023-02-28T10:31:09;2.20;;;1.60;;
4700;SDS011;8724;51.272;6.554;2023-02-28T10:33:43;3.07;;;1.77;;
4700;SDS011;8724;51.272;6.554;2023-02-28T10:36:12;1.43;;;1.33;;
4700;SDS011;8724;51.272;6.554;2023-02-28T10:38:44;1.50;;;1.40;;
4700;SDS011;8724;51.272;6.554;2023-02-28T10:41:14;1.47;;;1.37;;
4700;SDS011;8724;51.272;6.554;2023-02-28T10:43:45;3.33;;;2.07;;
4700;SDS011;8724;51.272;6.554;2023-02-28T10:46:15;1.40;;;1.30;;
4700;SDS011;8724;51.272;6.554;2023-02-28T10:49:00;2.20;;;1.97;;
4700;SDS011;8724;51.272;6.554;2023-02-28T10:51:35;20.33;;;13.80;;
4700;SDS011;8724;51.272;6.554;2023-02-28T10:54:05;35.27;;;23.53;;
4700;SDS011;8724;51.272;6.554;2023-02-28T10:56:42;11.83;;;6.50;;
4700;SDS011;8724;51.272;6.554;2023-02-28T10:59:26;4.27;;;3.30;;
4700;SDS011;8724;51.272;6.554;2023-02-28T11:01:56;4.30;;;2.20;;
4700;SDS011;8724;51.272;6.554;2023-02-28T11:04:32;2.10;;;2.00;;
4700;SDS011;8724;51.272;6.554;2023-02-28T11:07:05;1.43;;;1.30;;
4700;SDS011;8724;51.272;6.554;2023-02-28T11:09:44;5.10;;;1.67;;
4700;SDS011;8724;51.272;6.554;2023-02-28T11:12:22;2.50;;;1.60;;
4700;SDS011;8724;51.272;6.554;2023-02-28T11:14:56;1.80;;;1.70;;
4700;SDS011;8724;51.272;6.554;2023-02-28T11:17:29;2.47;;;1.97;;
4700;SDS011;8724;51.272;6.554;2023-02-28T11:20:00;1.90;;;1.70;;
4700;SDS011;8724;51.272;6.554;2023-02-28T11:22:35;1.93;;;1.40;;
4700;SDS011;8724;51.272;6.554;2023-02-28T11:25:07;1.90;;;1.80;;
4700;SDS011;8724;51.272;6.554;2023-02-28T11:27:45;1.20;;;1.10;;
4700;SDS011;8724;51.272;6.554;2023-02-28T11:30:29;1.77;;;1.47;;
4700;SDS011;8724;51.272;6.554;2023-02-28T11:33:13;1.60;;;1.50;;
4700;SDS011;8724;51.272;6.554;2023-02-28T11:35:49;1.40;;;1.30;;
4700;SDS011;8724;51.272;6.554;2023-02-28T11:38:18;2.27;;;1.70;;
4700;SDS011;8724;51.272;6.554;2023-02-28T11:40:48;2.20;;;1.30;;
4700;SDS011;8724;51.272;6.554;2023-02-28T11:43:30;1.60;;;1.50;;
4700;SDS011;8724;51.272;6.554;2023-02-28T11:46:16;1.40;;;1.30;;
4700;SDS011;8724;51.272;6.554;2023-02-28T11:48:53;2.40;;;1.37;;
4700;SDS011;8724;51.272;6.554;2023-02-28T11:51:31;1.30;;;1.20;;
4700;SDS011;8724;51.272;6.554;2023-02-28T11:54:07;1.33;;;1.23;;
4700;SDS011;8724;51.272;6.554;2023-02-28T11:56:49;1.67;;;1.57;;
4700;SDS011;8724;51.272;6.554;2023-02-28T11:59:32;2.97;;;1.43;;
4700;SDS011;8724;51.272;6.554;2023-02-28T12:02:22;1.97;;;1.40;;
4700;SDS011;8724;51.272;6.554;2023-02-28T12:04:55;1.60;;;1.50;;
4700;SDS011;8724;51.272;6.554;2023-02-28T12:07:40;1.50;;;1.40;;
4700;SDS011;8724;51.272;6.554;2023-02-28T12:10:19;1.90;;;1.53;;
4700;SDS011;8724;51.272;6.554;2023-02-28T12:12:54;1.50;;;1.20;;
4700;SDS011;8724;51.272;6.554;2023-02-28T12:15:45;1.63;;;1.50;;
4700;SDS011;8724;51.272;6.554;2023-02-28T12:18:34;1.30;;;1.20;;
4700;SDS011;8724;51.272;6.554;2023-02-28T12:21:15;1.93;;;1.80;;
4700;SDS011;8724;51.272;6.554;2023-02-28T12:23:56;1.50;;;1.40;;
4700;SDS011;8724;51.272;6.554;2023-02-28T12:26:36;1.53;;;1.27;;
4700;SDS011;8724;51.272;6.554;2023-02-28T12:29:09;2.70;;;1.37;;
4700;SDS011;8724;51.272;6.554;2023-02-28T12:31:44;4.93;;;3.97;;
4700;SDS011;8724;51.272;6.554;2023-02-28T12:34:20;48.73;;;34.80;;
4700;SDS011;8724;51.272;6.554;2023-02-28T12:36:53;19.00;;;14.53;;
4700;SDS011;8724;51.272;6.554;2023-02-28T12:39:23;11.23;;;8.33;;
4700;SDS011;8724;51.272;6.554;2023-02-28T12:42:05;5.87;;;4.60;;
4700;SDS011;8724;51.272;6.554;2023-02-28T12:44:40;5.17;;;3.03;;
4700;SDS011;8724;51.272;6.554;2023-02-28T12:47:17;3.73;;;2.13;;
4700;SDS011;8724;51.272;6.554;2023-02-28T12:49:48;1.97;;;1.77;;
4700;SDS011;8724;51.272;6.554;2023-02-28T12:52:22;9.97;;;3.23;;
4700;SDS011;8724;51.272;6.554;2023-02-28T12:54:57;3.80;;;1.53;;
4700;SDS011;8724;51.272;6.554;2023-02-28T12:57:32;1.70;;;1.60;;
4700;SDS011;8724;51.272;6.554;2023-02-28T13:00:10;2.40;;;1.50;;
4700;SDS011;8724;51.272;6.554;2023-02-28T13:02:53;6.97;;;2.13;;
4700;SDS011;8724;51.272;6.554;2023-02-28T13:06:04;2.23;;;1.30;;
4700;SDS011;8724;51.272;6.554;2023-02-28T13:08:56;4.10;;;1.53;;
4700;SDS011;8724;51.272;6.554;2023-02-28T13:11:30;2.53;;;1.70;;
4700;SDS011;8724;51.272;6.554;2023-02-28T13:14:02;2.73;;;1.23;;
4700;SDS011;8724;51.272;6.554;2023-02-28T13:16:54;1.40;;;1.30;;
4700;SDS011;8724;51.272;6.554;2023-02-28T13:19:25;2.43;;;1.80;;
4700;SDS011;8724;51.272;6.554;2023-02-28T13:21:57;1.90;;;1.43;;
4700;SDS011;8724;51.272;6.554;2023-02-28T13:24:38;1.80;;;1.70;;
4700;SDS011;8724;51.272;6.554;2023-02-28T13:27:20;1.70;;;1.60;;
4700;SDS011;8724;51.272;6.554;2023-02-28T13:29:52;1.60;;;1.50;;
4700;SDS011;8724;51.272;6.554;2023-02-28T13:44:09;2.70;;;2.07;;
4700;SDS011;8724;51.272;6.554;2023-02-28T13:49:48;1.40;;;1.30;;
4700;SDS011;8724;51.272;6.554;2023-02-28T13:52:19;1.87;;;1.60;;
4700;SDS011;8724;51.272;6.554;2023-02-28T13:54:53;4.20;;;1.83;;
4700;SDS011;8724;51.272;6.554;2023-02-28T13:57:39;1.67;;;1.57;;
4700;SDS011;8724;51.272;6.554;2023-02-28T14:00:20;1.80;;;1.70;;
4700;SDS011;8724;51.272;6.554;2023-02-28T14:03:03;1.40;;;1.30;;
4700;SDS011;8724;51.272;6.554;2023-02-28T14:05:42;5.93;;;1.63;;
4700;SDS011;8724;51.272;6.554;2023-02-28T14:08:13;1.90;;;1.70;;
4700;SDS011;8724;51.272;6.554;2023-02-28T14:10:46;1.27;;;1.17;;
4700;SDS011;8724;51.272;6.554;2023-02-28T14:16:11;1.33;;;1.30;;
4700;SDS011;8724;51.272;6.554;2023-02-28T14:18:42;2.10;;;1.50;;
4700;SDS011;8724;51.272;6.554;2023-02-28T14:21:20;3.03;;;1.40;;
4700;SDS011;8724;51.272;6.554;2023-02-28T14:27:14;1.37;;;1.27;;
4700;SDS011;8724;51.272;6.554;2023-02-28T14:30:15;1.90;;;1.80;;
4700;SDS011;8724;51.272;6.554;2023-02-28T14:33:11;1.70;;;1.60;;
4700;SDS011;8724;51.272;6.554;2023-02-28T14:35:54;2.20;;;1.57;;
4700;SDS011;8724;51.272;6.554;2023-02-28T14:38:35;1.63;;;1.53;;
4700;SDS011;8724;51.272;6.554;2023-02-28T14:41:12;1.47;;;1.40;;
4700;SDS011;8724;51.272;6.554;2023-02-28T14:43:51;2.30;;;1.90;;
4700;SDS011;8724;51.272;6.554;2023-02-28T14:46:23;1.80;;;1.70;;
4700;SDS011;8724;51.272;6.554;2023-02-28T14:48:56;2.33;;;1.50;;
4700;SDS011;8724;51.272;6.554;2023-02-28T14:51:25;2.50;;;2.20;;
4700;SDS011;8724;51.272;6.554;2023-02-28T14:53:56;2.40;;;2.20;;
4700;SDS011;8724;51.272;6.554;2023-02-28T14:56:28;1.70;;;1.60;;
4700;SDS011;8724;51.272;6.554;2023-02-28T14:59:02;1.70;;;1.60;;
4700;SDS011;8724;51.272;6.554;2023-02-28T15:01:31;2.30;;;1.73;;
4700;SDS011;8724;51.272;6.554;2023-02-28T15:04:01;7.10;;;5.57;;
4700;SDS011;8724;51.272;6.554;2023-02-28T15:06:31;16.17;;;11.73;;
4700;SDS011;8724;51.272;6.554;2023-02-28T15:09:06;6.63;;;5.93;;
4700;SDS011;8724;51.272;6.554;2023-02-28T15:11:36;4.07;;;3.50;;
4700;SDS011;8724;51.272;6.554;2023-02-28T15:14:12;2.40;;;2.20;;
4700;SDS011;8724;51.272;6.554;2023-02-28T15:16:44;2.63;;;1.70;;
4700;SDS011;8724;51.272;6.554;2023-02-28T15:19:17;2.40;;;1.93;;
4700;SDS011;8724;51.272;6.554;2023-02-28T15:21:51;2.60;;;1.67;;
4700;SDS011;8724;51.272;6.554;2023-02-28T15:24:26;2.50;;;2.00;;
4700;SDS011;8724;51.272;6.554;2023-02-28T15:26:59;2.07;;;1.70;;
4700;SDS011;8724;51.272;6.554;2023-02-28T15:29:33;1.63;;;1.53;;
4700;SDS011;8724;51.272;6.554;2023-02-28T15:32:16;1.70;;;1.60;;
4700;SDS011;8724;51.272;6.554;2023-02-28T15:34:52;2.53;;;2.00;;
4700;SDS011;8724;51.272;6.554;2023-02-28T15:37:28;1.93;;;1.83;;
4700;SDS011;8724;51.272;6.554;2023-02-28T15:40:04;1.70;;;1.60;;
4700;SDS011;8724;51.272;6.554;2023-02-28T15:42:39;1.37;;;1.27;;
4700;SDS011;8724;51.272;6.554;2023-02-28T15:48:17;6.23;;;2.17;;
4700;SDS011;8724;51.272;6.554;2023-02-28T15:50:49;2.10;;;1.90;;
4700;SDS011;8724;51.272;6.554;2023-02-28T15:53:21;2.60;;;2.03;;
4700;SDS011;8724;51.272;6.554;2023-02-28T15:55:55;1.70;;;1.60;;
4700;SDS011;8724;51.272;6.554;2023-02-28T15:58:27;3.60;;;2.10;;
4700;SDS011;8724;51.272;6.554;2023-02-28T16:01:01;1.73;;;1.63;;
4700;SDS011;8724;51.272;6.554;2023-02-28T16:03:41;2.53;;;1.90;;
4700;SDS011;8724;51.272;6.554;2023-02-28T16:09:06;2.30;;;2.07;;
4700;SDS011;8724;51.272;6.554;2023-02-28T16:11:38;1.73;;;1.63;;
4700;SDS011;8724;51.272;6.554;2023-02-28T16:14:16;1.80;;;1.70;;
4700;SDS011;8724;51.272;6.554;2023-02-28T16:16:48;5.10;;;1.90;;
4700;SDS011;8724;51.272;6.554;2023-02-28T16:19:19;2.20;;;1.67;;
4700;SDS011;8724;51.272;6.554;2023-02-28T16:21:50;2.63;;;2.43;;
4700;SDS011;8724;51.272;6.554;2023-02-28T16:24:18;11.97;;;9.03;;
4700;SDS011;8724;51.272;6.554;2023-02-28T16:26:47;16.63;;;10.90;;
4700;SDS011;8724;51.272;6.554;2023-02-28T16:29:19;22.13;;;16.30;;